createdAt,value
2022-12-28T00:01:31.014Z,4.67
2022-12-28T00:04:03.178Z,4.67
2022-12-28T00:06:30.196Z,4.67
2022-12-28T00:08:57.429Z,4.65
2022-12-28T00:11:27.692Z,4.66
2022-12-28T00:14:01.064Z,4.63
2022-12-28T00:16:34.063Z,4.64
2022-12-28T00:19:02.997Z,4.69
2022-12-28T00:21:29.763Z,4.67
2022-12-28T00:23:58.702Z,4.65
2022-12-28T00:26:27.483Z,4.65
2022-12-28T00:28:58.342Z,4.64
2022-12-28T00:31:28.714Z,4.64
2022-12-28T00:33:55.296Z,4.63
2022-12-28T00:36:21.802Z,4.63
2022-12-28T00:38:48.275Z,4.60
2022-12-28T00:41:14.750Z,4.60
2022-12-28T00:43:41.286Z,4.54
2022-12-28T00:46:08.551Z,4.56
2022-12-28T00:48:35.258Z,4.57
2022-12-28T00:51:12.209Z,4.57
2022-12-28T00:53:39.502Z,4.58
2022-12-28T00:56:12.137Z,4.59
2022-12-28T00:58:39.123Z,4.63
2022-12-28T01:01:11.082Z,4.64
2022-12-28T01:03:37.635Z,4.62
2022-12-28T01:06:09.049Z,4.61
2022-12-28T01:08:39.588Z,4.63
2022-12-28T01:11:17.836Z,4.61
2022-12-28T01:13:44.562Z,4.63
2022-12-28T01:16:20.480Z,4.63
2022-12-28T01:18:48.000Z,4.64
2022-12-28T01:21:20.525Z,4.70
2022-12-28T01:23:48.404Z,4.66
2022-12-28T01:26:16.342Z,4.63
2022-12-28T01:28:43.092Z,4.70
2022-12-28T01:31:12.819Z,4.67
2022-12-28T01:33:39.911Z,4.68
2022-12-28T01:36:10.365Z,4.72
2022-12-28T01:38:36.984Z,4.73
2022-12-28T01:41:07.241Z,4.68
2022-12-28T01:43:39.432Z,4.66
2022-12-28T01:46:06.315Z,4.63
2022-12-28T01:48:35.336Z,4.63
2022-12-28T01:51:01.851Z,4.68
2022-12-28T01:53:28.534Z,4.69
2022-12-28T01:55:55.094Z,4.71
2022-12-28T01:58:26.303Z,4.73
2022-12-28T02:00:52.852Z,4.75
2022-12-28T02:03:25.964Z,4.79
2022-12-28T02:05:55.920Z,4.77
2022-12-28T02:08:29.483Z,4.77
2022-12-28T02:10:56.214Z,4.81
2022-12-28T02:13:24.619Z,4.82
2022-12-28T02:15:51.740Z,4.81
2022-12-28T02:18:20.571Z,4.81
2022-12-28T02:21:17.525Z,4.79
2022-12-28T02:23:59.188Z,4.85
2022-12-28T02:26:35.477Z,4.84
2022-12-28T02:29:32.759Z,4.85
2022-12-28T02:32:39.936Z,4.85
2022-12-28T02:35:39.192Z,4.86
2022-12-28T02:38:20.141Z,4.82
2022-12-28T02:40:56.046Z,4.89
2022-12-28T02:43:22.564Z,4.89
2022-12-28T02:46:08.623Z,4.88
2022-12-28T02:49:01.869Z,4.88
2022-12-28T02:52:03.469Z,4.89
2022-12-28T02:55:15.995Z,4.90
2022-12-28T02:58:08.739Z,4.88
2022-12-28T03:01:09.211Z,4.92
2022-12-28T03:03:50.827Z,4.90
2022-12-28T03:07:01.108Z,4.90
2022-12-28T03:10:09.058Z,4.88
2022-12-28T03:12:50.921Z,4.91
2022-12-28T03:15:32.174Z,4.91
2022-12-28T03:18:26.665Z,4.90
2022-12-28T03:21:15.213Z,4.90
2022-12-28T03:24:03.583Z,4.92
2022-12-28T03:26:51.945Z,4.96
2022-12-28T03:29:41.231Z,4.98
2022-12-28T03:32:09.003Z,5.01
2022-12-28T03:34:35.752Z,4.99
2022-12-28T03:37:25.757Z,5.02
2022-12-28T03:40:06.540Z,5.01
2022-12-28T03:43:00.402Z,5.00
2022-12-28T03:45:47.441Z,4.98
2022-12-28T03:48:15.923Z,4.98
2022-12-28T03:50:45.671Z,4.98
2022-12-28T03:53:12.443Z,4.95
2022-12-28T03:55:40.462Z,4.96
2022-12-28T03:58:07.113Z,4.94
2022-12-28T04:00:34.211Z,4.91
2022-12-28T04:03:00.828Z,4.95
2022-12-28T04:05:27.379Z,4.97
2022-12-28T04:07:53.946Z,4.99
2022-12-28T04:10:20.418Z,5.02
2022-12-28T04:12:55.777Z,5.01
2022-12-28T04:15:22.326Z,4.99
2022-12-28T04:17:48.884Z,5.02
2022-12-28T04:20:15.457Z,5.04
2022-12-28T04:22:41.928Z,5.08
2022-12-28T04:25:08.642Z,5.13
2022-12-28T04:27:35.136Z,5.16
2022-12-28T04:30:01.751Z,5.19
2022-12-28T04:32:29.312Z,5.19
2022-12-28T04:34:55.788Z,5.18
2022-12-28T04:37:22.235Z,5.19
2022-12-28T04:39:55.420Z,5.16
2022-12-28T04:42:25.054Z,5.17
2022-12-28T04:44:51.632Z,5.18
2022-12-28T04:47:18.073Z,5.13
2022-12-28T04:49:44.673Z,5.10
2022-12-28T04:52:11.173Z,5.08
2022-12-28T04:54:37.674Z,5.09
2022-12-28T04:57:04.217Z,5.09
2022-12-28T04:59:30.692Z,5.11
2022-12-28T05:01:57.320Z,5.09
2022-12-28T05:04:26.528Z,5.08
2022-12-28T05:06:53.001Z,5.06
2022-12-28T05:09:19.590Z,5.05
2022-12-28T05:11:47.082Z,5.07
2022-12-28T05:14:13.636Z,5.13
2022-12-28T05:16:40.279Z,5.14
2022-12-28T05:19:06.809Z,5.13
2022-12-28T05:21:33.335Z,5.18
2022-12-28T05:23:59.908Z,5.29
2022-12-28T05:26:29.055Z,5.31
2022-12-28T05:28:56.887Z,5.36
2022-12-28T05:31:23.684Z,5.41
2022-12-28T05:33:50.286Z,5.39
2022-12-28T05:36:18.814Z,5.43
2022-12-28T05:38:46.272Z,5.43
2022-12-28T05:41:18.741Z,5.44
2022-12-28T05:43:46.317Z,5.47
2022-12-28T05:46:21.802Z,5.51
2022-12-28T05:48:48.675Z,5.55
2022-12-28T05:51:18.214Z,5.60
2022-12-28T05:53:45.266Z,5.61
2022-12-28T05:56:14.832Z,5.60
2022-12-28T05:58:45.762Z,5.65
2022-12-28T06:01:18.251Z,5.69
2022-12-28T06:03:46.422Z,5.72
2022-12-28T06:06:16.350Z,5.72
2022-12-28T06:08:44.245Z,5.75
2022-12-28T06:11:13.831Z,5.76
2022-12-28T06:13:40.328Z,5.80
2022-12-28T06:16:07.094Z,5.84
2022-12-28T06:18:34.309Z,5.82
2022-12-28T06:21:28.379Z,5.80
2022-12-28T06:23:59.833Z,5.82
2022-12-28T06:26:29.182Z,5.83
2022-12-28T06:28:56.426Z,5.83
2022-12-28T06:31:28.133Z,5.81
2022-12-28T06:33:57.097Z,5.84
2022-12-28T06:36:26.917Z,5.86
2022-12-28T06:38:54.866Z,5.85
2022-12-28T06:41:22.318Z,5.87
2022-12-28T06:43:50.390Z,5.85
2022-12-28T06:46:19.241Z,5.83
2022-12-28T06:48:45.817Z,5.80
2022-12-28T06:51:13.823Z,5.83
2022-12-28T06:53:40.560Z,5.82
2022-12-28T06:56:19.200Z,5.83
2022-12-28T06:58:47.345Z,5.79
2022-12-28T07:01:16.045Z,5.85
2022-12-28T07:03:44.479Z,5.85
2022-12-28T07:06:11.975Z,5.89
2022-12-28T07:08:40.045Z,5.87
2022-12-28T07:11:11.809Z,5.86
2022-12-28T07:13:38.636Z,5.84
2022-12-28T07:16:07.965Z,5.83
2022-12-28T07:18:34.723Z,5.84
2022-12-28T07:21:06.452Z,5.87
2022-12-28T07:23:34.059Z,5.89
2022-12-28T07:26:15.141Z,5.88
2022-12-28T07:28:44.591Z,5.92
2022-12-28T07:31:13.943Z,5.96
2022-12-28T07:33:41.706Z,6.00
2022-12-28T07:36:10.213Z,6.02
2022-12-28T07:38:36.745Z,6.03
2022-12-28T07:41:14.845Z,6.03
2022-12-28T07:43:41.677Z,6.12
2022-12-28T07:46:11.910Z,6.15
2022-12-28T07:48:39.725Z,6.15
2022-12-28T07:51:13.030Z,6.15
2022-12-28T07:53:40.878Z,6.18
2022-12-28T07:56:08.168Z,6.20
2022-12-28T07:58:35.103Z,6.23
2022-12-28T08:01:13.028Z,6.24
2022-12-28T08:03:41.784Z,6.27
2022-12-28T08:06:14.039Z,6.28
2022-12-28T08:08:45.364Z,6.30
2022-12-28T08:11:14.242Z,6.27
2022-12-28T08:13:43.021Z,6.31
2022-12-28T08:16:12.556Z,6.32
2022-12-28T08:18:40.377Z,6.33
2022-12-28T08:21:10.850Z,6.35
2022-12-28T08:23:40.126Z,6.36
2022-12-28T08:26:22.006Z,6.36
2022-12-28T08:28:50.916Z,6.37
2022-12-28T08:31:23.499Z,6.38
2022-12-28T08:33:51.061Z,6.40
2022-12-28T08:36:17.841Z,6.42
2022-12-28T08:38:45.428Z,6.46
2022-12-28T08:41:14.564Z,6.50
2022-12-28T08:43:41.062Z,6.52
2022-12-28T08:46:13.900Z,6.53
2022-12-28T08:48:40.986Z,6.57
2022-12-28T08:51:12.928Z,6.57
2022-12-28T08:53:39.406Z,6.59
2022-12-28T08:56:11.512Z,6.63
2022-12-28T08:58:39.317Z,6.64
2022-12-28T09:01:11.809Z,6.68
2022-12-28T09:03:40.608Z,6.70
2022-12-28T09:06:10.127Z,6.72
2022-12-28T09:08:37.886Z,6.72
2022-12-28T09:11:07.152Z,6.73
2022-12-28T09:13:34.298Z,6.76
2022-12-28T09:16:04.234Z,6.82
2022-12-28T09:18:31.352Z,6.82
2022-12-28T09:21:03.641Z,6.87
2022-12-28T09:23:30.157Z,6.91
2022-12-28T09:25:56.612Z,6.89
2022-12-28T09:28:23.121Z,6.94
2022-12-28T09:30:49.558Z,6.97
2022-12-28T09:33:50.911Z,7.00
2022-12-28T09:36:21.139Z,7.05
2022-12-28T09:38:48.744Z,7.05
2022-12-28T09:41:27.369Z,7.06
2022-12-28T09:44:08.626Z,7.12
2022-12-28T09:46:38.622Z,7.09
2022-12-28T09:49:11.479Z,7.08
2022-12-28T09:51:50.786Z,7.09
2022-12-28T09:54:17.581Z,7.08
2022-12-28T09:56:47.784Z,7.09
2022-12-28T09:59:22.860Z,7.10
2022-12-28T10:01:57.257Z,7.11
2022-12-28T10:04:24.755Z,7.09
2022-12-28T10:06:51.417Z,7.07
2022-12-28T10:09:40.816Z,7.05
2022-12-28T10:12:19.869Z,7.07
2022-12-28T10:14:50.476Z,7.16
2022-12-28T10:17:23.299Z,7.28
2022-12-28T10:19:50.315Z,7.37
2022-12-28T10:22:19.616Z,7.46
2022-12-28T10:24:47.181Z,7.47
2022-12-28T10:27:20.284Z,7.48
2022-12-28T10:29:46.753Z,7.54
2022-12-28T10:32:13.497Z,7.52
2022-12-28T10:35:00.509Z,7.46
2022-12-28T10:37:32.488Z,7.45
2022-12-28T10:40:00.627Z,7.50
2022-12-28T10:42:36.863Z,7.47
2022-12-28T10:45:08.111Z,7.50
2022-12-28T10:47:43.059Z,7.53
2022-12-28T10:50:48.060Z,7.49
2022-12-28T10:53:26.445Z,7.43
2022-12-28T10:56:06.022Z,7.46
2022-12-28T10:58:34.227Z,7.48
2022-12-28T11:01:03.581Z,7.51
2022-12-28T11:03:35.361Z,7.49
2022-12-28T11:06:09.621Z,7.46
2022-12-28T11:08:37.468Z,7.46
2022-12-28T11:11:04.347Z,7.45
2022-12-28T11:13:30.919Z,7.52
2022-12-28T11:15:57.775Z,7.52
2022-12-28T11:18:30.756Z,7.52
2022-12-28T11:20:59.773Z,7.56
2022-12-28T11:23:31.648Z,7.53
2022-12-28T11:25:58.866Z,7.58
2022-12-28T11:28:28.732Z,7.59
2022-12-28T11:30:56.543Z,7.65
2022-12-28T11:33:24.932Z,7.65
2022-12-28T11:35:59.439Z,7.63
2022-12-28T11:38:44.141Z,7.68
2022-12-28T11:41:18.874Z,7.69
2022-12-28T11:43:53.486Z,7.71
2022-12-28T11:46:22.828Z,7.70
2022-12-28T11:49:04.506Z,7.70
2022-12-28T11:51:33.201Z,7.67
2022-12-28T11:54:04.369Z,7.68
2022-12-28T11:56:45.734Z,7.67
2022-12-28T11:59:26.119Z,7.68
2022-12-28T12:02:00.294Z,7.68
2022-12-28T12:04:29.778Z,7.70
2022-12-28T12:07:01.307Z,7.68
2022-12-28T12:09:32.683Z,7.67
2022-12-28T12:12:01.504Z,7.67
2022-12-28T12:14:42.772Z,7.71
2022-12-28T12:17:45.039Z,7.74
2022-12-28T12:20:30.498Z,7.70
2022-12-28T12:23:05.411Z,7.69
2022-12-28T12:25:37.883Z,7.75
2022-12-28T12:28:15.653Z,7.74
2022-12-28T12:30:44.178Z,7.79
2022-12-28T12:33:23.766Z,7.79
2022-12-28T12:36:03.611Z,7.78
2022-12-28T12:39:16.553Z,7.81
2022-12-28T12:42:01.621Z,7.83
2022-12-28T12:44:47.724Z,7.88
2022-12-28T12:47:36.831Z,7.90
2022-12-28T12:50:20.530Z,7.87
2022-12-28T12:53:11.904Z,7.86
2022-12-28T12:56:09.493Z,7.89
2022-12-28T12:58:48.425Z,7.90
2022-12-28T13:01:29.109Z,7.92
2022-12-28T13:04:01.640Z,7.96
2022-12-28T13:06:30.970Z,7.93
2022-12-28T13:09:05.273Z,7.91
2022-12-28T13:11:37.547Z,7.94
2022-12-28T13:14:05.039Z,7.91
2022-12-28T13:16:32.676Z,7.89
2022-12-28T13:19:00.650Z,7.87
2022-12-28T13:21:33.412Z,7.85
2022-12-28T13:24:00.363Z,7.85
2022-12-28T13:26:29.663Z,7.86
2022-12-28T13:29:02.024Z,7.85
2022-12-28T13:31:38.059Z,7.85
2022-12-28T13:34:35.025Z,7.83
2022-12-28T13:37:07.669Z,7.83
2022-12-28T13:39:41.621Z,7.81
2022-12-28T13:42:17.094Z,7.79
2022-12-28T13:44:52.506Z,7.79
2022-12-28T13:47:27.333Z,7.81
2022-12-28T13:50:05.733Z,7.82
2022-12-28T13:52:50.756Z,7.82
2022-12-28T13:55:22.525Z,7.80
2022-12-28T13:57:58.867Z,7.82
2022-12-28T14:00:26.782Z,7.77
2022-12-28T14:02:55.404Z,7.74
2022-12-28T14:05:25.902Z,7.73
2022-12-28T14:07:54.330Z,7.73
2022-12-28T14:10:21.496Z,7.73
2022-12-28T14:12:48.740Z,7.72
2022-12-28T14:15:16.716Z,7.76
2022-12-28T14:17:45.448Z,7.79
2022-12-28T14:20:12.276Z,7.78
2022-12-28T14:22:40.332Z,7.81
2022-12-28T14:25:12.879Z,7.85
2022-12-28T14:27:44.891Z,7.85
2022-12-28T14:30:40.929Z,7.83
2022-12-28T14:33:26.125Z,7.80
2022-12-28T14:35:56.448Z,7.80
2022-12-28T14:38:27.402Z,7.83
2022-12-28T14:40:56.220Z,7.80
2022-12-28T14:43:36.784Z,7.80
2022-12-28T14:46:37.148Z,7.83
2022-12-28T14:49:28.531Z,7.85
2022-12-28T14:52:16.395Z,7.85
2022-12-28T14:54:50.008Z,7.85
2022-12-28T14:57:33.856Z,7.79
2022-12-28T15:00:07.203Z,7.78
2022-12-28T15:02:33.798Z,7.73
2022-12-28T15:05:01.456Z,7.71
2022-12-28T15:07:27.969Z,7.72
2022-12-28T15:09:54.481Z,7.72
2022-12-28T15:12:21.818Z,7.75
2022-12-28T15:14:49.709Z,7.76
2022-12-28T15:17:16.599Z,7.75
2022-12-28T15:19:44.989Z,7.77
2022-12-28T15:22:12.511Z,7.76
2022-12-28T15:24:40.207Z,7.78
2022-12-28T15:27:06.734Z,7.78
2022-12-28T15:30:04.280Z,7.76
2022-12-28T15:32:19.752Z,7.78
2022-12-28T15:34:46.203Z,7.80
2022-12-28T15:37:12.710Z,7.80
2022-12-28T15:39:39.221Z,7.79
2022-12-28T15:42:05.708Z,7.80
2022-12-28T15:44:32.223Z,7.84
2022-12-28T15:46:58.791Z,7.82
2022-12-28T15:49:25.319Z,7.80
2022-12-28T15:51:51.831Z,7.79
2022-12-28T15:54:18.765Z,7.80
2022-12-28T15:56:54.661Z,7.78
2022-12-28T15:59:21.426Z,7.79
2022-12-28T16:01:48.323Z,7.76
2022-12-28T16:04:15.161Z,7.74
2022-12-28T16:06:44.646Z,7.76
2022-12-28T16:09:13.322Z,7.75
2022-12-28T16:11:39.868Z,7.78
2022-12-28T16:14:07.672Z,7.80
2022-12-28T16:16:38.083Z,7.76
2022-12-28T16:19:06.870Z,7.72
2022-12-28T16:21:33.535Z,7.68
2022-12-28T16:24:00.588Z,7.64
2022-12-28T16:26:27.874Z,7.58
2022-12-28T16:28:54.669Z,7.57
2022-12-28T16:31:31.478Z,7.55
2022-12-28T16:34:00.662Z,7.52
2022-12-28T16:36:28.020Z,7.53
2022-12-28T16:38:54.632Z,7.54
2022-12-28T16:41:21.837Z,7.54
2022-12-28T16:43:49.565Z,7.51
2022-12-28T16:46:16.677Z,7.49
2022-12-28T16:48:43.729Z,7.53
2022-12-28T16:51:11.744Z,7.53
2022-12-28T16:53:38.548Z,7.54
2022-12-28T16:56:06.310Z,7.54
2022-12-28T16:58:33.385Z,7.53
2022-12-28T17:01:05.897Z,7.58
2022-12-28T17:03:32.621Z,7.56
2022-12-28T17:05:59.271Z,7.56
2022-12-28T17:08:26.193Z,7.56
2022-12-28T17:10:52.880Z,7.59
2022-12-28T17:13:19.398Z,7.61
2022-12-28T17:15:45.951Z,7.62
2022-12-28T17:18:13.758Z,7.71
2022-12-28T17:20:40.916Z,7.70
2022-12-28T17:23:08.434Z,7.66
2022-12-28T17:25:35.917Z,7.62
2022-12-28T17:28:03.316Z,7.59
2022-12-28T17:30:29.841Z,7.61
2022-12-28T17:32:56.597Z,7.64
2022-12-28T17:35:23.341Z,7.68
2022-12-28T17:37:50.774Z,7.67
2022-12-28T17:40:17.630Z,7.71
2022-12-28T17:42:44.354Z,7.78
2022-12-28T17:45:12.173Z,7.78
2022-12-28T17:47:38.899Z,7.82
2022-12-28T17:50:06.543Z,7.82
2022-12-28T17:52:33.171Z,7.82
2022-12-28T17:54:59.742Z,7.81
2022-12-28T17:57:26.210Z,7.78
2022-12-28T17:59:52.686Z,7.75
2022-12-28T18:02:19.260Z,7.74
2022-12-28T18:04:45.920Z,7.72
2022-12-28T18:07:12.396Z,7.70
2022-12-28T18:09:38.857Z,7.67
2022-12-28T18:12:05.409Z,7.65
2022-12-28T18:14:31.873Z,7.67
2022-12-28T18:16:58.483Z,7.69
2022-12-28T18:19:25.130Z,7.69
2022-12-28T18:21:51.862Z,7.68
2022-12-28T18:24:20.867Z,7.70
2022-12-28T18:26:48.088Z,7.70
2022-12-28T18:29:14.858Z,7.68
2022-12-28T18:31:41.468Z,7.66
2022-12-28T18:34:08.119Z,7.67
2022-12-28T18:36:34.625Z,7.71
2022-12-28T18:39:02.698Z,7.71
2022-12-28T18:41:33.972Z,7.76
2022-12-28T18:44:02.786Z,7.77
2022-12-28T18:46:29.765Z,7.75
2022-12-28T18:48:56.681Z,7.78
2022-12-28T18:51:23.511Z,7.76
2022-12-28T18:53:50.854Z,7.80
2022-12-28T18:56:21.426Z,7.77
2022-12-28T18:58:56.181Z,7.79
2022-12-28T19:04:15.931Z,7.78
2022-12-28T19:06:43.491Z,7.77
2022-12-28T19:09:10.806Z,7.81
2022-12-28T19:11:38.516Z,7.81
2022-12-28T19:14:07.561Z,7.79
2022-12-28T19:16:34.952Z,7.78
2022-12-28T19:19:01.769Z,7.77
2022-12-28T19:21:31.606Z,7.74
2022-12-28T19:24:15.150Z,7.74
2022-12-28T19:26:42.979Z,7.71
2022-12-28T19:29:11.947Z,7.70
2022-12-28T19:31:38.595Z,7.72
2022-12-28T19:34:05.112Z,7.70
2022-12-28T19:36:32.720Z,7.74
2022-12-28T19:38:59.805Z,7.75
2022-12-28T19:41:26.361Z,7.73
2022-12-28T19:43:53.292Z,7.81
2022-12-28T19:46:21.993Z,7.84
2022-12-28T19:48:51.722Z,7.86
2022-12-28T19:51:18.323Z,7.87
2022-12-28T19:53:44.890Z,7.87
2022-12-28T19:56:13.379Z,7.85
2022-12-28T19:58:40.463Z,7.88
2022-12-28T20:01:14.497Z,7.88
2022-12-28T20:03:42.085Z,7.92
2022-12-28T20:06:14.822Z,7.93
2022-12-28T20:08:46.110Z,7.92
2022-12-28T20:11:12.633Z,7.91
2022-12-28T20:13:39.146Z,7.87
2022-12-28T20:16:06.410Z,7.83
2022-12-28T20:18:33.127Z,7.76
2022-12-28T20:21:21.490Z,7.76
2022-12-28T20:23:53.114Z,7.71
2022-12-28T20:26:23.555Z,7.68
2022-12-28T20:28:50.877Z,7.68
2022-12-28T20:31:17.828Z,7.68
2022-12-28T20:33:45.282Z,7.70
2022-12-28T20:36:18.073Z,7.77
2022-12-28T20:38:45.435Z,7.75
2022-12-28T20:41:33.356Z,7.80
2022-12-28T20:44:01.790Z,7.80
2022-12-28T20:46:28.615Z,7.82
2022-12-28T20:48:59.202Z,7.87
2022-12-28T20:51:26.432Z,7.87
2022-12-28T20:53:52.927Z,7.86
2022-12-28T20:56:19.551Z,7.91
2022-12-28T20:58:46.276Z,7.90
2022-12-28T21:01:15.432Z,7.95
2022-12-28T21:03:42.307Z,7.96
2022-12-28T21:06:09.011Z,7.92
2022-12-28T21:08:35.611Z,7.94
2022-12-28T21:11:14.500Z,7.92
2022-12-28T21:13:44.450Z,7.97
2022-12-28T21:16:13.531Z,7.98
2022-12-28T21:18:40.891Z,8.01
2022-12-28T21:21:14.286Z,8.01
2022-12-28T21:23:40.733Z,8.03
2022-12-28T21:26:11.261Z,8.05
2022-12-28T21:28:37.775Z,8.07
2022-12-28T21:31:06.091Z,8.08
2022-12-28T21:33:33.295Z,8.11
2022-12-28T21:36:00.351Z,8.12
2022-12-28T21:38:26.955Z,8.13
2022-12-28T21:41:05.373Z,8.15
2022-12-28T21:43:32.202Z,8.17
2022-12-28T21:46:02.485Z,8.19
2022-12-28T21:48:33.673Z,8.25
2022-12-28T21:51:31.000Z,8.26
2022-12-28T21:53:58.214Z,8.27
2022-12-28T21:56:28.930Z,8.25
2022-12-28T21:58:56.203Z,8.24
2022-12-28T22:01:42.093Z,8.24
2022-12-28T22:04:32.317Z,8.24
2022-12-28T22:06:59.230Z,8.23
2022-12-28T22:09:44.496Z,8.24
2022-12-28T22:12:30.367Z,8.23
2022-12-28T22:15:15.784Z,8.28
2022-12-28T22:17:43.325Z,8.31
2022-12-28T22:20:12.389Z,8.29
2022-12-28T22:22:39.936Z,8.26
2022-12-28T22:25:07.246Z,8.26
2022-12-28T22:27:33.842Z,8.28
2022-12-28T22:30:00.336Z,8.25
2022-12-28T22:32:27.206Z,8.24
2022-12-28T22:34:53.677Z,8.25
2022-12-28T22:37:20.206Z,8.24
2022-12-28T22:39:46.688Z,8.26
2022-12-28T22:42:15.571Z,8.28
2022-12-28T22:44:42.256Z,8.25
2022-12-28T22:47:08.933Z,8.24
2022-12-28T22:49:35.417Z,8.26
2022-12-28T22:52:01.941Z,8.23
2022-12-28T22:54:28.386Z,8.23
2022-12-28T22:56:54.870Z,8.21
2022-12-28T22:59:21.363Z,8.20
2022-12-28T23:01:48.368Z,8.19
2022-12-28T23:04:15.601Z,8.21
2022-12-28T23:06:42.046Z,8.21
2022-12-28T23:09:08.568Z,8.21
2022-12-28T23:11:37.740Z,8.26
2022-12-28T23:14:24.612Z,8.29
2022-12-28T23:16:51.203Z,8.35
2022-12-28T23:19:37.095Z,8.35
2022-12-28T23:22:24.133Z,8.39
2022-12-28T23:25:09.244Z,8.38
2022-12-28T23:27:42.524Z,8.37
2022-12-28T23:30:12.867Z,8.37
2022-12-28T23:32:42.642Z,8.40
2022-12-28T23:35:09.413Z,8.36
2022-12-28T23:37:35.996Z,8.35
2022-12-28T23:40:03.190Z,8.40
2022-12-28T23:42:29.647Z,8.41
2022-12-28T23:44:56.107Z,8.39
2022-12-28T23:47:22.581Z,8.41
2022-12-28T23:49:49.068Z,8.42
2022-12-28T23:52:16.373Z,8.44
2022-12-28T23:54:45.040Z,8.45
2022-12-28T23:57:11.481Z,8.48
2022-12-28T23:59:37.916Z,8.50
